sensor_id;sensor_type;location;lat;lon;timestamp;P1;durP1;ratioP1;P2;durP2;ratioP2
25439;SDS011;13365;52.208;5.488;2023-08-08T00:00:55;7.35;;;3.30;;
25439;SDS011;13365;52.208;5.488;2023-08-08T00:03:21;6.00;;;2.97;;
25439;SDS011;13365;52.208;5.488;2023-08-08T00:05:47;6.63;;;3.30;;
25439;SDS011;13365;52.208;5.488;2023-08-08T00:08:12;5.43;;;3.08;;
25439;SDS011;13365;52.208;5.488;2023-08-08T00:10:38;9.18;;;2.63;;
25439;SDS011;13365;52.208;5.488;2023-08-08T00:13:03;6.03;;;2.92;;
25439;SDS011;13365;52.208;5.488;2023-08-08T00:15:29;5.75;;;3.13;;
25439;SDS011;13365;52.208;5.488;2023-08-08T00:17:55;7.15;;;2.90;;
25439;SDS011;13365;52.208;5.488;2023-08-08T00:20:20;7.50;;;2.92;;
25439;SDS011;13365;52.208;5.488;2023-08-08T00:22:46;5.63;;;2.58;;
25439;SDS011;13365;52.208;5.488;2023-08-08T00:25:11;9.35;;;2.97;;
25439;SDS011;13365;52.208;5.488;2023-08-08T00:27:37;7.82;;;2.30;;
25439;SDS011;13365;52.208;5.488;2023-08-08T00:30:07;9.52;;;2.80;;
25439;SDS011;13365;52.208;5.488;2023-08-08T00:32:33;6.85;;;2.72;;
25439;SDS011;13365;52.208;5.488;2023-08-08T00:35:00;5.90;;;2.30;;
25439;SDS011;13365;52.208;5.488;2023-08-08T00:37:25;6.75;;;2.53;;
25439;SDS011;13365;52.208;5.488;2023-08-08T00:39:51;4.63;;;2.80;;
25439;SDS011;13365;52.208;5.488;2023-08-08T00:42:17;6.63;;;2.40;;
25439;SDS011;13365;52.208;5.488;2023-08-08T00:44:42;6.20;;;2.60;;
25439;SDS011;13365;52.208;5.488;2023-08-08T00:47:08;3.65;;;1.98;;
25439;SDS011;13365;52.208;5.488;2023-08-08T00:49:35;11.88;;;2.67;;
25439;SDS011;13365;52.208;5.488;2023-08-08T00:52:01;6.53;;;2.38;;
25439;SDS011;13365;52.208;5.488;2023-08-08T00:54:27;6.07;;;2.53;;
25439;SDS011;13365;52.208;5.488;2023-08-08T00:56:52;9.60;;;2.60;;
25439;SDS011;13365;52.208;5.488;2023-08-08T00:59:18;4.90;;;2.03;;
25439;SDS011;13365;52.208;5.488;2023-08-08T01:01:44;6.65;;;2.00;;
25439;SDS011;13365;52.208;5.488;2023-08-08T01:04:11;11.25;;;2.55;;
25439;SDS011;13365;52.208;5.488;2023-08-08T01:06:38;9.45;;;2.30;;
25439;SDS011;13365;52.208;5.488;2023-08-08T01:12:01;12.15;;;2.83;;
25439;SDS011;13365;52.208;5.488;2023-08-08T01:14:28;9.38;;;2.72;;
25439;SDS011;13365;52.208;5.488;2023-08-08T01:16:57;11.45;;;2.45;;
25439;SDS011;13365;52.208;5.488;2023-08-08T01:19:27;9.38;;;3.05;;
25439;SDS011;13365;52.208;5.488;2023-08-08T01:21:54;8.57;;;2.78;;
25439;SDS011;13365;52.208;5.488;2023-08-08T01:24:23;12.80;;;2.30;;
25439;SDS011;13365;52.208;5.488;2023-08-08T01:26:52;7.57;;;2.72;;
25439;SDS011;13365;52.208;5.488;2023-08-08T01:29:18;9.88;;;2.10;;
25439;SDS011;13365;52.208;5.488;2023-08-08T01:31:44;7.78;;;3.53;;
25439;SDS011;13365;52.208;5.488;2023-08-08T01:34:09;9.68;;;2.45;;
25439;SDS011;13365;52.208;5.488;2023-08-08T01:36:38;7.80;;;2.50;;
25439;SDS011;13365;52.208;5.488;2023-08-08T01:39:12;10.07;;;3.42;;
25439;SDS011;13365;52.208;5.488;2023-08-08T01:41:42;10.65;;;2.45;;
25439;SDS011;13365;52.208;5.488;2023-08-08T01:44:10;6.15;;;2.50;;
25439;SDS011;13365;52.208;5.488;2023-08-08T01:46:36;7.95;;;2.97;;
25439;SDS011;13365;52.208;5.488;2023-08-08T01:49:03;10.95;;;3.53;;
25439;SDS011;13365;52.208;5.488;2023-08-08T01:51:29;10.48;;;3.30;;
25439;SDS011;13365;52.208;5.488;2023-08-08T01:53:56;6.80;;;2.33;;
25439;SDS011;13365;52.208;5.488;2023-08-08T01:56:22;15.23;;;3.33;;
25439;SDS011;13365;52.208;5.488;2023-08-08T01:58:48;13.98;;;3.35;;
25439;SDS011;13365;52.208;5.488;2023-08-08T02:01:13;9.77;;;3.08;;
25439;SDS011;13365;52.208;5.488;2023-08-08T02:03:39;8.90;;;3.42;;
25439;SDS011;13365;52.208;5.488;2023-08-08T02:06:04;8.48;;;3.00;;
25439;SDS011;13365;52.208;5.488;2023-08-08T02:08:30;8.95;;;3.53;;
25439;SDS011;13365;52.208;5.488;2023-08-08T02:10:55;8.00;;;3.05;;
25439;SDS011;13365;52.208;5.488;2023-08-08T02:13:21;10.93;;;3.33;;
25439;SDS011;13365;52.208;5.488;2023-08-08T02:15:46;11.55;;;3.53;;
25439;SDS011;13365;52.208;5.488;2023-08-08T02:18:12;6.38;;;2.90;;
25439;SDS011;13365;52.208;5.488;2023-08-08T02:20:37;10.32;;;3.10;;
25439;SDS011;13365;52.208;5.488;2023-08-08T02:23:03;18.00;;;3.00;;
25439;SDS011;13365;52.208;5.488;2023-08-08T02:25:29;8.45;;;2.95;;
25439;SDS011;13365;52.208;5.488;2023-08-08T02:27:55;8.38;;;2.78;;
25439;SDS011;13365;52.208;5.488;2023-08-08T02:30:21;8.13;;;3.28;;
25439;SDS011;13365;52.208;5.488;2023-08-08T02:32:47;13.85;;;2.72;;
25439;SDS011;13365;52.208;5.488;2023-08-08T02:35:12;6.32;;;2.05;;
25439;SDS011;13365;52.208;5.488;2023-08-08T02:37:38;9.15;;;2.72;;
25439;SDS011;13365;52.208;5.488;2023-08-08T02:40:05;8.40;;;2.30;;
25439;SDS011;13365;52.208;5.488;2023-08-08T02:42:31;6.15;;;2.22;;
25439;SDS011;13365;52.208;5.488;2023-08-08T02:44:57;5.50;;;2.10;;
25439;SDS011;13365;52.208;5.488;2023-08-08T02:47:22;4.45;;;2.08;;
25439;SDS011;13365;52.208;5.488;2023-08-08T02:49:48;5.28;;;1.90;;
25439;SDS011;13365;52.208;5.488;2023-08-08T02:52:14;5.45;;;2.30;;
25439;SDS011;13365;52.208;5.488;2023-08-08T02:54:39;7.47;;;2.28;;
25439;SDS011;13365;52.208;5.488;2023-08-08T02:57:05;5.53;;;2.30;;
25439;SDS011;13365;52.208;5.488;2023-08-08T02:59:31;5.95;;;2.80;;
25439;SDS011;13365;52.208;5.488;2023-08-08T03:01:56;6.05;;;2.00;;
25439;SDS011;13365;52.208;5.488;2023-08-08T03:04:22;5.53;;;1.92;;
25439;SDS011;13365;52.208;5.488;2023-08-08T03:06:47;6.20;;;2.30;;
25439;SDS011;13365;52.208;5.488;2023-08-08T03:09:13;8.75;;;2.00;;
25439;SDS011;13365;52.208;5.488;2023-08-08T03:11:38;3.40;;;1.63;;
25439;SDS011;13365;52.208;5.488;2023-08-08T03:14:06;3.67;;;1.83;;
25439;SDS011;13365;52.208;5.488;2023-08-08T03:16:33;6.88;;;2.45;;
25439;SDS011;13365;52.208;5.488;2023-08-08T03:18:59;9.30;;;2.33;;
25439;SDS011;13365;52.208;5.488;2023-08-08T03:21:25;6.43;;;1.90;;
25439;SDS011;13365;52.208;5.488;2023-08-08T03:23:50;5.40;;;1.70;;
25439;SDS011;13365;52.208;5.488;2023-08-08T03:26:16;4.30;;;2.00;;
25439;SDS011;13365;52.208;5.488;2023-08-08T03:28:41;7.43;;;2.17;;
25439;SDS011;13365;52.208;5.488;2023-08-08T03:31:07;8.05;;;2.00;;
25439;SDS011;13365;52.208;5.488;2023-08-08T03:33:32;7.47;;;2.33;;
25439;SDS011;13365;52.208;5.488;2023-08-08T03:35:58;5.45;;;1.92;;
25439;SDS011;13365;52.208;5.488;2023-08-08T03:38:23;7.43;;;2.00;;
25439;SDS011;13365;52.208;5.488;2023-08-08T03:40:50;7.97;;;2.35;;
25439;SDS011;13365;52.208;5.488;2023-08-08T03:43:16;7.05;;;2.30;;
25439;SDS011;13365;52.208;5.488;2023-08-08T03:45:41;4.78;;;1.98;;
25439;SDS011;13365;52.208;5.488;2023-08-08T03:48:07;5.50;;;2.00;;
25439;SDS011;13365;52.208;5.488;2023-08-08T03:50:32;9.38;;;2.25;;
25439;SDS011;13365;52.208;5.488;2023-08-08T03:52:58;4.65;;;2.08;;
25439;SDS011;13365;52.208;5.488;2023-08-08T03:55:23;5.10;;;2.05;;
25439;SDS011;13365;52.208;5.488;2023-08-08T03:57:49;5.28;;;2.28;;
25439;SDS011;13365;52.208;5.488;2023-08-08T04:00:14;2.78;;;1.75;;
25439;SDS011;13365;52.208;5.488;2023-08-08T04:02:40;4.35;;;2.00;;
25439;SDS011;13365;52.208;5.488;2023-08-08T04:05:06;7.75;;;2.60;;
25439;SDS011;13365;52.208;5.488;2023-08-08T04:07:33;5.18;;;2.00;;
25439;SDS011;13365;52.208;5.488;2023-08-08T04:09:59;7.47;;;2.08;;
25439;SDS011;13365;52.208;5.488;2023-08-08T04:12:25;7.32;;;2.22;;
25439;SDS011;13365;52.208;5.488;2023-08-08T04:14:50;5.95;;;2.70;;
25439;SDS011;13365;52.208;5.488;2023-08-08T04:17:16;7.75;;;1.90;;
25439;SDS011;13365;52.208;5.488;2023-08-08T04:19:41;5.53;;;1.90;;
25439;SDS011;13365;52.208;5.488;2023-08-08T04:22:07;5.55;;;2.33;;
25439;SDS011;13365;52.208;5.488;2023-08-08T04:24:32;5.90;;;1.52;;
25439;SDS011;13365;52.208;5.488;2023-08-08T04:26:58;9.75;;;2.60;;
25439;SDS011;13365;52.208;5.488;2023-08-08T04:29:23;8.63;;;1.88;;
25439;SDS011;13365;52.208;5.488;2023-08-08T04:31:49;6.07;;;2.30;;
25439;SDS011;13365;52.208;5.488;2023-08-08T04:34:14;14.13;;;2.60;;
25439;SDS011;13365;52.208;5.488;2023-08-08T04:36:40;4.47;;;2.10;;
25439;SDS011;13365;52.208;5.488;2023-08-08T04:39:05;7.85;;;2.60;;
25439;SDS011;13365;52.208;5.488;2023-08-08T04:41:31;5.80;;;2.30;;
25439;SDS011;13365;52.208;5.488;2023-08-08T04:43:56;14.23;;;2.13;;
25439;SDS011;13365;52.208;5.488;2023-08-08T04:46:22;10.43;;;2.45;;
25439;SDS011;13365;52.208;5.488;2023-08-08T04:48:48;9.73;;;2.20;;
25439;SDS011;13365;52.208;5.488;2023-08-08T04:51:13;6.07;;;2.38;;
25439;SDS011;13365;52.208;5.488;2023-08-08T04:53:39;3.60;;;1.80;;
25439;SDS011;13365;52.208;5.488;2023-08-08T04:56:04;10.93;;;2.55;;
25439;SDS011;13365;52.208;5.488;2023-08-08T04:58:30;4.68;;;1.70;;
25439;SDS011;13365;52.208;5.488;2023-08-08T05:00:55;4.72;;;1.90;;
25439;SDS011;13365;52.208;5.488;2023-08-08T05:03:21;2.20;;;1.33;;
25439;SDS011;13365;52.208;5.488;2023-08-08T05:05:46;4.85;;;1.48;;
25439;SDS011;13365;52.208;5.488;2023-08-08T05:08:12;4.22;;;1.50;;
25439;SDS011;13365;52.208;5.488;2023-08-08T05:10:38;9.43;;;2.10;;
25439;SDS011;13365;52.208;5.488;2023-08-08T05:13:04;11.55;;;1.80;;
25439;SDS011;13365;52.208;5.488;2023-08-08T05:15:29;4.50;;;1.33;;
25439;SDS011;13365;52.208;5.488;2023-08-08T05:17:55;4.70;;;1.55;;
25439;SDS011;13365;52.208;5.488;2023-08-08T05:20:21;9.63;;;2.25;;
25439;SDS011;13365;52.208;5.488;2023-08-08T05:22:46;3.95;;;1.80;;
25439;SDS011;13365;52.208;5.488;2023-08-08T05:25:12;11.02;;;1.80;;
25439;SDS011;13365;52.208;5.488;2023-08-08T05:27:38;9.50;;;1.92;;
25439;SDS011;13365;52.208;5.488;2023-08-08T05:30:04;7.07;;;1.60;;
25439;SDS011;13365;52.208;5.488;2023-08-08T05:32:31;4.00;;;1.58;;
25439;SDS011;13365;52.208;5.488;2023-08-08T05:34:56;5.18;;;1.48;;
25439;SDS011;13365;52.208;5.488;2023-08-08T05:37:23;4.90;;;1.65;;
25439;SDS011;13365;52.208;5.488;2023-08-08T05:39:51;6.85;;;1.90;;
25439;SDS011;13365;52.208;5.488;2023-08-08T05:42:18;5.07;;;1.50;;
25439;SDS011;13365;52.208;5.488;2023-08-08T05:44:43;3.88;;;1.55;;
25439;SDS011;13365;52.208;5.488;2023-08-08T05:47:09;3.03;;;1.42;;
25439;SDS011;13365;52.208;5.488;2023-08-08T05:49:35;7.25;;;1.65;;
25439;SDS011;13365;52.208;5.488;2023-08-08T05:52:01;4.95;;;1.17;;
25439;SDS011;13365;52.208;5.488;2023-08-08T05:54:26;5.55;;;1.27;;
25439;SDS011;13365;52.208;5.488;2023-08-08T05:56:53;5.47;;;1.45;;
25439;SDS011;13365;52.208;5.488;2023-08-08T05:59:18;6.18;;;1.25;;
25439;SDS011;13365;52.208;5.488;2023-08-08T06:01:44;5.53;;;1.83;;
25439;SDS011;13365;52.208;5.488;2023-08-08T06:04:10;9.65;;;1.58;;
25439;SDS011;13365;52.208;5.488;2023-08-08T06:06:35;6.13;;;1.52;;
25439;SDS011;13365;52.208;5.488;2023-08-08T06:09:01;5.25;;;1.40;;
25439;SDS011;13365;52.208;5.488;2023-08-08T06:11:26;5.35;;;1.40;;
25439;SDS011;13365;52.208;5.488;2023-08-08T06:13:52;4.18;;;1.15;;
25439;SDS011;13365;52.208;5.488;2023-08-08T06:16:19;4.05;;;1.33;;
25439;SDS011;13365;52.208;5.488;2023-08-08T06:18:45;2.75;;;1.05;;
25439;SDS011;13365;52.208;5.488;2023-08-08T06:21:10;7.07;;;1.27;;
25439;SDS011;13365;52.208;5.488;2023-08-08T06:23:36;6.75;;;1.30;;
25439;SDS011;13365;52.208;5.488;2023-08-08T06:26:01;3.35;;;1.40;;
25439;SDS011;13365;52.208;5.488;2023-08-08T06:28:27;7.60;;;1.08;;
25439;SDS011;13365;52.208;5.488;2023-08-08T06:30:52;6.25;;;1.75;;
25439;SDS011;13365;52.208;5.488;2023-08-08T06:33:18;3.13;;;1.10;;
25439;SDS011;13365;52.208;5.488;2023-08-08T06:35:44;2.28;;;0.98;;
25439;SDS011;13365;52.208;5.488;2023-08-08T06:38:09;4.07;;;1.13;;
25439;SDS011;13365;52.208;5.488;2023-08-08T06:40:35;2.65;;;1.27;;
25439;SDS011;13365;52.208;5.488;2023-08-08T06:43:02;10.27;;;1.52;;
25439;SDS011;13365;52.208;5.488;2023-08-08T06:45:28;5.85;;;1.20;;
25439;SDS011;13365;52.208;5.488;2023-08-08T06:47:53;7.15;;;1.65;;
25439;SDS011;13365;52.208;5.488;2023-08-08T06:50:19;4.57;;;0.95;;
25439;SDS011;13365;52.208;5.488;2023-08-08T06:52:45;5.35;;;1.02;;
25439;SDS011;13365;52.208;5.488;2023-08-08T06:55:10;6.30;;;0.93;;
25439;SDS011;13365;52.208;5.488;2023-08-08T06:57:36;6.35;;;0.90;;
25439;SDS011;13365;52.208;5.488;2023-08-08T07:00:02;11.57;;;1.27;;
25439;SDS011;13365;52.208;5.488;2023-08-08T07:02:31;6.15;;;0.98;;
25439;SDS011;13365;52.208;5.488;2023-08-08T07:04:57;8.88;;;1.13;;
25439;SDS011;13365;52.208;5.488;2023-08-08T07:07:22;9.52;;;1.02;;
25439;SDS011;13365;52.208;5.488;2023-08-08T07:09:48;4.15;;;0.90;;
25439;SDS011;13365;52.208;5.488;2023-08-08T07:12:14;3.15;;;0.90;;
25439;SDS011;13365;52.208;5.488;2023-08-08T07:14:39;5.75;;;0.70;;
25439;SDS011;13365;52.208;5.488;2023-08-08T07:17:05;3.17;;;0.77;;
25439;SDS011;13365;52.208;5.488;2023-08-08T07:19:30;3.60;;;0.60;;
25439;SDS011;13365;52.208;5.488;2023-08-08T07:21:56;2.40;;;0.73;;
25439;SDS011;13365;52.208;5.488;2023-08-08T07:24:21;8.90;;;0.77;;
25439;SDS011;13365;52.208;5.488;2023-08-08T07:26:47;3.33;;;0.75;;
25439;SDS011;13365;52.208;5.488;2023-08-08T07:29:13;5.28;;;0.80;;
25439;SDS011;13365;52.208;5.488;2023-08-08T07:31:39;4.97;;;0.80;;
25439;SDS011;13365;52.208;5.488;2023-08-08T07:34:04;1.67;;;0.60;;
25439;SDS011;13365;52.208;5.488;2023-08-08T07:36:30;5.57;;;0.98;;
25439;SDS011;13365;52.208;5.488;2023-08-08T07:38:55;6.82;;;0.85;;
25439;SDS011;13365;52.208;5.488;2023-08-08T07:41:24;8.35;;;0.85;;
25439;SDS011;13365;52.208;5.488;2023-08-08T07:43:51;5.78;;;0.88;;
25439;SDS011;13365;52.208;5.488;2023-08-08T07:46:17;5.63;;;0.90;;
25439;SDS011;13365;52.208;5.488;2023-08-08T07:48:42;5.13;;;0.75;;
25439;SDS011;13365;52.208;5.488;2023-08-08T07:51:08;1.58;;;0.50;;
25439;SDS011;13365;52.208;5.488;2023-08-08T07:53:33;4.95;;;0.52;;
25439;SDS011;13365;52.208;5.488;2023-08-08T07:55:59;2.45;;;0.47;;
25439;SDS011;13365;52.208;5.488;2023-08-08T07:58:24;2.13;;;0.50;;
25439;SDS011;13365;52.208;5.488;2023-08-08T08:00:52;8.13;;;1.20;;
25439;SDS011;13365;52.208;5.488;2023-08-08T08:03:18;2.33;;;0.40;;
25439;SDS011;13365;52.208;5.488;2023-08-08T08:05:44;3.55;;;0.50;;
25439;SDS011;13365;52.208;5.488;2023-08-08T08:08:09;1.85;;;0.25;;
25439;SDS011;13365;52.208;5.488;2023-08-08T08:10:35;1.58;;;0.43;;
25439;SDS011;13365;52.208;5.488;2023-08-08T08:13:00;0.95;;;0.38;;
25439;SDS011;13365;52.208;5.488;2023-08-08T08:15:26;5.55;;;0.43;;
25439;SDS011;13365;52.208;5.488;2023-08-08T08:17:53;2.45;;;0.65;;
25439;SDS011;13365;52.208;5.488;2023-08-08T08:20:18;1.45;;;0.40;;
25439;SDS011;13365;52.208;5.488;2023-08-08T08:22:44;3.33;;;0.60;;
25439;SDS011;13365;52.208;5.488;2023-08-08T08:25:10;3.10;;;0.85;;
25439;SDS011;13365;52.208;5.488;2023-08-08T08:27:36;4.70;;;0.63;;
25439;SDS011;13365;52.208;5.488;2023-08-08T08:30:02;1.65;;;0.40;;
25439;SDS011;13365;52.208;5.488;2023-08-08T08:32:32;2.92;;;0.52;;
25439;SDS011;13365;52.208;5.488;2023-08-08T08:35:00;3.55;;;0.47;;
25439;SDS011;13365;52.208;5.488;2023-08-08T08:37:27;0.88;;;0.45;;
25439;SDS011;13365;52.208;5.488;2023-08-08T08:39:53;2.58;;;0.57;;
25439;SDS011;13365;52.208;5.488;2023-08-08T08:42:18;2.40;;;0.52;;
25439;SDS011;13365;52.208;5.488;2023-08-08T08:44:44;5.97;;;1.15;;
25439;SDS011;13365;52.208;5.488;2023-08-08T08:47:12;2.35;;;0.45;;
25439;SDS011;13365;52.208;5.488;2023-08-08T08:49:38;0.75;;;0.30;;
25439;SDS011;13365;52.208;5.488;2023-08-08T08:52:04;2.03;;;0.43;;
25439;SDS011;13365;52.208;5.488;2023-08-08T08:54:32;2.95;;;0.35;;
25439;SDS011;13365;52.208;5.488;2023-08-08T08:57:00;1.98;;;0.40;;
25439;SDS011;13365;52.208;5.488;2023-08-08T08:59:25;0.55;;;0.20;;
25439;SDS011;13365;52.208;5.488;2023-08-08T09:01:51;1.17;;;0.50;;
25439;SDS011;13365;52.208;5.488;2023-08-08T09:04:18;1.33;;;0.38;;
25439;SDS011;13365;52.208;5.488;2023-08-08T09:06:46;1.15;;;0.47;;
25439;SDS011;13365;52.208;5.488;2023-08-08T09:09:12;0.88;;;0.30;;
25439;SDS011;13365;52.208;5.488;2023-08-08T09:11:40;3.38;;;0.50;;
25439;SDS011;13365;52.208;5.488;2023-08-08T09:14:19;6.65;;;0.40;;
25439;SDS011;13365;52.208;5.488;2023-08-08T09:16:46;0.28;;;0.28;;
25439;SDS011;13365;52.208;5.488;2023-08-08T09:19:16;1.05;;;0.47;;
25439;SDS011;13365;52.208;5.488;2023-08-08T09:21:45;1.95;;;0.40;;
25439;SDS011;13365;52.208;5.488;2023-08-08T09:24:11;1.33;;;0.40;;
25439;SDS011;13365;52.208;5.488;2023-08-08T09:26:38;1.10;;;0.35;;
25439;SDS011;13365;52.208;5.488;2023-08-08T09:29:07;1.27;;;0.30;;
25439;SDS011;13365;52.208;5.488;2023-08-08T09:31:36;3.45;;;0.35;;
25439;SDS011;13365;52.208;5.488;2023-08-08T09:34:03;1.02;;;0.30;;
25439;SDS011;13365;52.208;5.488;2023-08-08T09:36:29;1.80;;;0.65;;
25439;SDS011;13365;52.208;5.488;2023-08-08T09:38:55;2.55;;;0.68;;
25439;SDS011;13365;52.208;5.488;2023-08-08T09:41:21;1.55;;;0.45;;
25439;SDS011;13365;52.208;5.488;2023-08-08T09:43:48;0.93;;;0.50;;
25439;SDS011;13365;52.208;5.488;2023-08-08T09:46:21;5.28;;;0.50;;
25439;SDS011;13365;52.208;5.488;2023-08-08T09:48:48;4.28;;;0.45;;
25439;SDS011;13365;52.208;5.488;2023-08-08T09:51:15;1.65;;;0.50;;
25439;SDS011;13365;52.208;5.488;2023-08-08T09:53:41;2.38;;;0.43;;
25439;SDS011;13365;52.208;5.488;2023-08-08T09:56:07;5.70;;;1.25;;
25439;SDS011;13365;52.208;5.488;2023-08-08T09:58:33;5.30;;;0.47;;
25439;SDS011;13365;52.208;5.488;2023-08-08T10:00:59;1.95;;;0.50;;
25439;SDS011;13365;52.208;5.488;2023-08-08T10:03:25;4.72;;;0.70;;
25439;SDS011;13365;52.208;5.488;2023-08-08T10:05:54;1.52;;;0.55;;
25439;SDS011;13365;52.208;5.488;2023-08-08T10:08:19;3.25;;;0.52;;
25439;SDS011;13365;52.208;5.488;2023-08-08T10:10:46;4.13;;;0.50;;
25439;SDS011;13365;52.208;5.488;2023-08-08T10:13:24;3.13;;;0.50;;
25439;SDS011;13365;52.208;5.488;2023-08-08T10:15:51;1.83;;;0.35;;
25439;SDS011;13365;52.208;5.488;2023-08-08T10:18:18;0.80;;;0.38;;
25439;SDS011;13365;52.208;5.488;2023-08-08T10:20:49;2.72;;;0.38;;
25439;SDS011;13365;52.208;5.488;2023-08-08T10:23:16;5.07;;;0.50;;
25439;SDS011;13365;52.208;5.488;2023-08-08T10:25:46;0.70;;;0.30;;
25439;SDS011;13365;52.208;5.488;2023-08-08T10:28:16;0.68;;;0.40;;
25439;SDS011;13365;52.208;5.488;2023-08-08T10:33:17;3.60;;;0.75;;
25439;SDS011;13365;52.208;5.488;2023-08-08T10:36:05;0.82;;;0.43;;
25439;SDS011;13365;52.208;5.488;2023-08-08T10:38:44;1.30;;;0.57;;
25439;SDS011;13365;52.208;5.488;2023-08-08T10:41:15;5.97;;;0.50;;
25439;SDS011;13365;52.208;5.488;2023-08-08T10:43:56;3.20;;;0.55;;
25439;SDS011;13365;52.208;5.488;2023-08-08T10:46:26;0.90;;;0.30;;
25439;SDS011;13365;52.208;5.488;2023-08-08T10:48:53;2.17;;;0.67;;
25439;SDS011;13365;52.208;5.488;2023-08-08T10:51:20;2.25;;;0.50;;
25439;SDS011;13365;52.208;5.488;2023-08-08T10:53:46;11.35;;;0.70;;
25439;SDS011;13365;52.208;5.488;2023-08-08T10:56:17;1.42;;;0.45;;
25439;SDS011;13365;52.208;5.488;2023-08-08T10:58:48;1.52;;;0.32;;
25439;SDS011;13365;52.208;5.488;2023-08-08T11:01:14;1.55;;;0.55;;
25439;SDS011;13365;52.208;5.488;2023-08-08T11:03:41;1.75;;;0.45;;
25439;SDS011;13365;52.208;5.488;2023-08-08T11:06:07;1.58;;;0.60;;
25439;SDS011;13365;52.208;5.488;2023-08-08T11:08:34;1.77;;;0.57;;
25439;SDS011;13365;52.208;5.488;2023-08-08T11:11:01;1.05;;;0.35;;
25439;SDS011;13365;52.208;5.488;2023-08-08T11:13:28;0.45;;;0.20;;
25439;SDS011;13365;52.208;5.488;2023-08-08T11:15:54;5.07;;;0.50;;
25439;SDS011;13365;52.208;5.488;2023-08-08T11:18:19;1.40;;;0.50;;
25439;SDS011;13365;52.208;5.488;2023-08-08T11:20:45;2.22;;;0.50;;
25439;SDS011;13365;52.208;5.488;2023-08-08T11:23:11;3.15;;;0.35;;
25439;SDS011;13365;52.208;5.488;2023-08-08T11:25:39;6.25;;;0.60;;
25439;SDS011;13365;52.208;5.488;2023-08-08T11:30:37;1.88;;;0.30;;
25439;SDS011;13365;52.208;5.488;2023-08-08T11:33:06;0.50;;;0.28;;
25439;SDS011;13365;52.208;5.488;2023-08-08T11:35:32;1.23;;;0.40;;
25439;SDS011;13365;52.208;5.488;2023-08-08T11:37:59;0.38;;;0.20;;
25439;SDS011;13365;52.208;5.488;2023-08-08T11:40:25;2.83;;;0.50;;
25439;SDS011;13365;52.208;5.488;2023-08-08T11:42:53;1.25;;;0.47;;
25439;SDS011;13365;52.208;5.488;2023-08-08T11:45:19;4.15;;;0.20;;
25439;SDS011;13365;52.208;5.488;2023-08-08T11:47:48;2.35;;;0.70;;
25439;SDS011;13365;52.208;5.488;2023-08-08T11:50:15;1.38;;;0.47;;
25439;SDS011;13365;52.208;5.488;2023-08-08T11:52:45;6.47;;;0.57;;
25439;SDS011;13365;52.208;5.488;2023-08-08T11:55:11;3.20;;;0.82;;
25439;SDS011;13365;52.208;5.488;2023-08-08T11:57:37;4.97;;;0.57;;
25439;SDS011;13365;52.208;5.488;2023-08-08T12:00:08;1.30;;;0.50;;
25439;SDS011;13365;52.208;5.488;2023-08-08T12:02:39;2.75;;;0.68;;
25439;SDS011;13365;52.208;5.488;2023-08-08T12:05:07;6.68;;;0.70;;
25439;SDS011;13365;52.208;5.488;2023-08-08T12:07:42;4.63;;;0.65;;
25439;SDS011;13365;52.208;5.488;2023-08-08T12:10:27;2.30;;;0.30;;
25439;SDS011;13365;52.208;5.488;2023-08-08T12:12:54;1.33;;;0.63;;
25439;SDS011;13365;52.208;5.488;2023-08-08T12:15:27;0.95;;;0.20;;
25439;SDS011;13365;52.208;5.488;2023-08-08T12:17:54;6.03;;;0.47;;
25439;SDS011;13365;52.208;5.488;2023-08-08T12:20:20;2.42;;;0.40;;
25439;SDS011;13365;52.208;5.488;2023-08-08T12:22:45;0.60;;;0.20;;
25439;SDS011;13365;52.208;5.488;2023-08-08T12:25:12;0.73;;;0.22;;
25439;SDS011;13365;52.208;5.488;2023-08-08T12:27:38;0.60;;;0.40;;
25439;SDS011;13365;52.208;5.488;2023-08-08T12:30:04;7.13;;;0.60;;
25439;SDS011;13365;52.208;5.488;2023-08-08T12:32:31;1.23;;;0.43;;
25439;SDS011;13365;52.208;5.488;2023-08-08T12:34:58;2.50;;;0.55;;
25439;SDS011;13365;52.208;5.488;2023-08-08T12:37:23;3.67;;;0.40;;
25439;SDS011;13365;52.208;5.488;2023-08-08T12:39:49;1.23;;;0.63;;
25439;SDS011;13365;52.208;5.488;2023-08-08T12:42:15;5.10;;;0.70;;
25439;SDS011;13365;52.208;5.488;2023-08-08T12:44:41;2.63;;;0.75;;
25439;SDS011;13365;52.208;5.488;2023-08-08T12:47:07;1.13;;;0.50;;
25439;SDS011;13365;52.208;5.488;2023-08-08T12:49:33;3.60;;;0.40;;
25439;SDS011;13365;52.208;5.488;2023-08-08T12:51:58;2.17;;;0.75;;
25439;SDS011;13365;52.208;5.488;2023-08-08T12:54:24;2.30;;;0.65;;
25439;SDS011;13365;52.208;5.488;2023-08-08T12:56:49;2.42;;;0.60;;
25439;SDS011;13365;52.208;5.488;2023-08-08T12:59:15;0.98;;;0.40;;
25439;SDS011;13365;52.208;5.488;2023-08-08T13:01:40;2.65;;;0.50;;
25439;SDS011;13365;52.208;5.488;2023-08-08T13:04:06;3.83;;;0.40;;
25439;SDS011;13365;52.208;5.488;2023-08-08T13:06:31;0.55;;;0.25;;
25439;SDS011;13365;52.208;5.488;2023-08-08T13:08:57;3.90;;;0.57;;
25439;SDS011;13365;52.208;5.488;2023-08-08T13:11:23;5.38;;;0.55;;
25439;SDS011;13365;52.208;5.488;2023-08-08T13:13:49;5.00;;;0.95;;
25439;SDS011;13365;52.208;5.488;2023-08-08T13:16:14;1.45;;;0.40;;
25439;SDS011;13365;52.208;5.488;2023-08-08T13:18:40;4.15;;;0.30;;
25439;SDS011;13365;52.208;5.488;2023-08-08T13:21:05;2.45;;;0.65;;
25439;SDS011;13365;52.208;5.488;2023-08-08T13:23:31;0.70;;;0.28;;
25439;SDS011;13365;52.208;5.488;2023-08-08T13:25:57;0.70;;;0.30;;
25439;SDS011;13365;52.208;5.488;2023-08-08T13:28:23;1.15;;;0.60;;
25439;SDS011;13365;52.208;5.488;2023-08-08T13:30:48;2.05;;;0.43;;
25439;SDS011;13365;52.208;5.488;2023-08-08T13:33:14;1.70;;;0.35;;
25439;SDS011;13365;52.208;5.488;2023-08-08T13:35:39;3.15;;;0.47;;
25439;SDS011;13365;52.208;5.488;2023-08-08T13:38:05;2.85;;;0.57;;
25439;SDS011;13365;52.208;5.488;2023-08-08T13:40:31;2.78;;;0.88;;
25439;SDS011;13365;52.208;5.488;2023-08-08T13:42:57;1.67;;;0.32;;
25439;SDS011;13365;52.208;5.488;2023-08-08T13:45:23;1.02;;;0.35;;
25439;SDS011;13365;52.208;5.488;2023-08-08T13:47:48;1.05;;;0.82;;
25439;SDS011;13365;52.208;5.488;2023-08-08T13:50:14;0.95;;;0.40;;
25439;SDS011;13365;52.208;5.488;2023-08-08T13:52:40;2.45;;;0.40;;
25439;SDS011;13365;52.208;5.488;2023-08-08T13:55:07;1.08;;;0.40;;
25439;SDS011;13365;52.208;5.488;2023-08-08T13:57:33;2.28;;;0.70;;
25439;SDS011;13365;52.208;5.488;2023-08-08T13:59:59;1.25;;;0.60;;
25439;SDS011;13365;52.208;5.488;2023-08-08T14:02:25;0.80;;;0.38;;
25439;SDS011;13365;52.208;5.488;2023-08-08T14:04:50;1.85;;;0.47;;
25439;SDS011;13365;52.208;5.488;2023-08-08T14:07:17;3.90;;;0.40;;
25439;SDS011;13365;52.208;5.488;2023-08-08T14:09:43;4.43;;;0.60;;
25439;SDS011;13365;52.208;5.488;2023-08-08T14:12:08;4.40;;;0.57;;
25439;SDS011;13365;52.208;5.488;2023-08-08T14:14:34;0.80;;;0.38;;
25439;SDS011;13365;52.208;5.488;2023-08-08T14:16:59;0.98;;;0.52;;
25439;SDS011;13365;52.208;5.488;2023-08-08T14:19:25;5.93;;;0.95;;
25439;SDS011;13365;52.208;5.488;2023-08-08T14:21:50;1.42;;;0.60;;
25439;SDS011;13365;52.208;5.488;2023-08-08T14:24:16;4.00;;;0.63;;
25439;SDS011;13365;52.208;5.488;2023-08-08T14:26:41;1.92;;;0.55;;
25439;SDS011;13365;52.208;5.488;2023-08-08T14:29:07;1.45;;;0.77;;
25439;SDS011;13365;52.208;5.488;2023-08-08T14:31:32;1.27;;;0.50;;
25439;SDS011;13365;52.208;5.488;2023-08-08T14:33:58;0.50;;;0.38;;
25439;SDS011;13365;52.208;5.488;2023-08-08T14:36:23;2.00;;;0.50;;
25439;SDS011;13365;52.208;5.488;2023-08-08T14:38:49;1.52;;;0.50;;
25439;SDS011;13365;52.208;5.488;2023-08-08T14:41:14;6.15;;;0.70;;
25439;SDS011;13365;52.208;5.488;2023-08-08T14:43:40;2.95;;;0.60;;
25439;SDS011;13365;52.208;5.488;2023-08-08T14:46:06;3.95;;;0.73;;
25439;SDS011;13365;52.208;5.488;2023-08-08T14:48:31;1.17;;;0.70;;
25439;SDS011;13365;52.208;5.488;2023-08-08T14:50:59;4.00;;;0.80;;